createdAt,value
2018-12-07T00:02:57.208Z,92.42
2018-12-07T00:07:03.376Z,93.19
2018-12-07T00:11:10.504Z,92.95
2018-12-07T00:15:16.602Z,91.91
2018-12-07T00:19:22.635Z,92.60
2018-12-07T00:23:28.759Z,91.94
2018-12-07T00:27:34.741Z,92.77
2018-12-07T00:31:40.976Z,91.48
2018-12-07T00:35:47.361Z,91.80
2018-12-07T00:39:53.991Z,91.56
2018-12-07T00:44:01.649Z,90.50
2018-12-07T00:48:07.633Z,91.00
2018-12-07T00:52:13.771Z,90.41
2018-12-07T00:56:20.967Z,91.05
2018-12-07T01:00:26.836Z,90.42
2018-12-07T01:04:32.927Z,90.49
2018-12-07T01:08:38.882Z,90.46
2018-12-07T01:12:45.105Z,90.22
2018-12-07T01:16:51.134Z,89.74
2018-12-07T01:20:57.440Z,90.04
2018-12-07T01:25:03.455Z,90.74
2018-12-07T01:29:09.470Z,90.64
2018-12-07T01:33:15.685Z,90.41
2018-12-07T01:37:26.550Z,90.81
2018-12-07T01:41:32.797Z,90.07
2018-12-07T01:45:38.930Z,89.98
2018-12-07T01:49:45.007Z,90.36
2018-12-07T01:53:50.997Z,90.02
2018-12-07T01:57:57.196Z,89.69
2018-12-07T02:02:03.265Z,90.15
2018-12-07T02:06:09.280Z,89.41
2018-12-07T02:10:15.241Z,90.01
2018-12-07T02:14:21.418Z,89.41
2018-12-07T02:18:27.211Z,89.54
2018-12-07T02:22:33.608Z,89.55
2018-12-07T02:26:39.643Z,89.12
2018-12-07T02:30:45.732Z,89.53
2018-12-07T02:34:51.393Z,89.86
2018-12-07T02:38:57.520Z,89.71
2018-12-07T02:43:03.659Z,89.56
2018-12-07T02:47:09.580Z,90.45
2018-12-07T02:51:16.080Z,89.51
2018-12-07T02:55:23.112Z,89.83
2018-12-07T02:59:29.211Z,89.04
2018-12-07T03:03:35.157Z,89.35
2018-12-07T03:07:41.357Z,88.65
2018-12-07T03:11:47.319Z,88.68
2018-12-07T03:15:53.304Z,88.45
2018-12-07T03:20:05.862Z,88.65
2018-12-07T03:24:11.777Z,88.08
2018-12-07T03:28:17.991Z,87.82
2018-12-07T03:32:23.924Z,87.60
2018-12-07T03:36:30.929Z,87.67
2018-12-07T03:40:37.212Z,88.38
2018-12-07T03:44:43.062Z,87.85
2018-12-07T03:48:49.855Z,87.92
2018-12-07T03:52:55.832Z,87.49
2018-12-07T03:57:02.069Z,87.77
2018-12-07T04:01:07.945Z,86.84
2018-12-07T04:05:14.072Z,86.81
2018-12-07T04:09:19.971Z,87.57
2018-12-07T04:13:26.939Z,87.63
2018-12-07T04:17:33.231Z,86.98
2018-12-07T04:21:39.364Z,87.33
2018-12-07T04:25:45.229Z,87.34
2018-12-07T04:30:36.490Z,87.22
2018-12-07T04:34:42.638Z,87.97
2018-12-07T04:38:48.663Z,88.56
2018-12-07T04:42:55.008Z,88.88
2018-12-07T04:47:01.411Z,89.39
2018-12-07T04:51:10.811Z,89.54
2018-12-07T04:55:17.105Z,90.15
2018-12-07T04:59:23.262Z,90.30
2018-12-07T05:03:29.139Z,90.55
2018-12-07T05:07:35.145Z,91.66
2018-12-07T05:11:41.164Z,92.10
2018-12-07T05:15:47.431Z,93.28
2018-12-07T05:19:53.667Z,93.32
2018-12-07T05:23:59.982Z,94.04
2018-12-07T05:28:06.976Z,94.32
2018-12-07T05:32:13.322Z,93.74
2018-12-07T05:36:20.414Z,93.78
2018-12-07T05:40:26.429Z,93.55
2018-12-07T05:44:33.043Z,93.17
2018-12-07T05:48:39.221Z,91.61
2018-12-07T05:52:45.300Z,92.01
2018-12-07T05:56:51.393Z,91.69
2018-12-07T06:00:57.493Z,91.07
2018-12-07T06:05:03.443Z,91.55
2018-12-07T06:09:09.576Z,92.31
2018-12-07T06:13:15.466Z,93.09
2018-12-07T06:17:21.467Z,92.62
2018-12-07T06:21:27.584Z,93.07
2018-12-07T06:25:33.918Z,92.87
2018-12-07T06:29:40.560Z,93.04
2018-12-07T06:33:46.683Z,92.73
2018-12-07T06:37:54.366Z,91.05
2018-12-07T06:42:00.627Z,91.28
2018-12-07T06:46:07.422Z,90.53
2018-12-07T06:50:14.549Z,91.27
2018-12-07T06:54:21.624Z,91.20
2018-12-07T06:58:27.714Z,90.74
2018-12-07T07:02:33.717Z,91.01
2018-12-07T07:06:39.466Z,89.97
2018-12-07T07:10:45.669Z,90.64
2018-12-07T07:14:52.277Z,90.11
2018-12-07T07:18:58.775Z,90.62
2018-12-07T07:23:04.893Z,90.23
2018-12-07T07:27:10.943Z,90.81
2018-12-07T07:31:16.944Z,90.65
2018-12-07T07:35:23.165Z,91.56
2018-12-07T07:39:28.949Z,91.87
2018-12-07T07:43:35.021Z,91.48
2018-12-07T07:47:40.690Z,92.10
2018-12-07T07:51:47.064Z,92.47
2018-12-07T07:55:53.215Z,92.50
2018-12-07T08:00:00.242Z,92.74
2018-12-07T08:04:06.138Z,91.99
2018-12-07T08:08:11.934Z,92.23
2018-12-07T08:12:18.345Z,92.71
2018-12-07T08:16:24.109Z,93.15
2018-12-07T08:20:29.890Z,93.01
2018-12-07T08:24:37.626Z,93.06
2018-12-07T08:28:43.401Z,92.25
2018-12-07T08:32:49.122Z,91.43
2018-12-07T08:36:54.833Z,91.95
2018-12-07T08:41:00.818Z,91.19
2018-12-07T08:45:12.363Z,91.59
2018-12-07T08:49:34.646Z,91.35
2018-12-07T08:53:43.164Z,90.90
2018-12-07T08:57:49.093Z,91.02
2018-12-07T09:01:54.895Z,90.62
2018-12-07T09:06:00.560Z,89.75
2018-12-07T09:10:07.081Z,88.76
2018-12-07T09:14:13.865Z,88.73
2018-12-07T09:18:20.935Z,87.26
2018-12-07T09:22:28.300Z,87.32
2018-12-07T09:26:34.760Z,86.91
2018-12-07T09:30:44.044Z,86.06
2018-12-07T09:34:53.459Z,85.74
2018-12-07T09:39:01.884Z,85.44
2018-12-07T09:43:10.172Z,84.52
2018-12-07T09:47:23.852Z,84.89
2018-12-07T09:51:32.904Z,84.74
2018-12-07T09:55:48.312Z,84.92
2018-12-07T10:00:00.373Z,86.21
2018-12-07T10:04:07.779Z,88.33
2018-12-07T10:08:15.685Z,88.64
2018-12-07T10:12:25.871Z,88.37
2018-12-07T10:16:32.321Z,87.82
2018-12-07T10:20:40.146Z,87.14
2018-12-07T10:24:54.532Z,86.16
2018-12-07T10:29:02.286Z,85.93
2018-12-07T10:33:09.738Z,85.11
2018-12-07T10:37:18.455Z,84.62
2018-12-07T10:41:26.052Z,83.23
2018-12-07T10:45:33.967Z,83.40
2018-12-07T10:49:43.018Z,82.91
2018-12-07T10:53:49.054Z,82.59
2018-12-07T10:57:54.913Z,82.47
2018-12-07T11:02:08.314Z,82.58
2018-12-07T11:06:20.320Z,82.61
2018-12-07T11:10:33.929Z,82.08
2018-12-07T11:14:47.464Z,81.78
2018-12-07T11:19:01.089Z,81.30
2018-12-07T11:23:31.521Z,81.80
2018-12-07T11:27:47.398Z,81.89
2018-12-07T11:31:58.935Z,81.74
2018-12-07T11:36:08.261Z,81.16
2018-12-07T11:40:20.439Z,81.10
2018-12-07T11:44:29.000Z,81.69
2018-12-07T11:48:35.887Z,82.03
2018-12-07T11:52:42.300Z,81.70
2018-12-07T11:56:48.620Z,81.09
2018-12-07T12:00:56.805Z,81.49
2018-12-07T12:05:02.592Z,80.67
2018-12-07T12:09:10.939Z,80.41
2018-12-07T12:13:18.810Z,81.19
2018-12-07T12:17:27.719Z,80.39
2018-12-07T12:21:36.552Z,81.12
2018-12-07T12:25:42.263Z,80.60
2018-12-07T12:29:48.875Z,80.93
2018-12-07T12:33:55.144Z,81.94
2018-12-07T12:38:00.873Z,83.03
2018-12-07T12:42:09.598Z,85.02
2018-12-07T12:46:15.526Z,86.13
2018-12-07T12:50:29.066Z,87.48
2018-12-07T12:54:38.724Z,86.89
2018-12-07T12:58:44.681Z,87.04
2018-12-07T13:02:50.422Z,86.16
2018-12-07T13:06:56.500Z,85.61
2018-12-07T13:11:02.247Z,86.74
2018-12-07T13:15:08.253Z,85.82
2018-12-07T13:19:14.592Z,86.26
2018-12-07T13:23:27.659Z,86.85
2018-12-07T13:27:35.688Z,87.21
2018-12-07T13:31:48.374Z,87.15
2018-12-07T13:35:56.453Z,86.91
2018-12-07T13:40:05.054Z,87.76
2018-12-07T13:44:11.337Z,87.17
2018-12-07T13:48:17.148Z,86.85
2018-12-07T13:52:24.496Z,86.38
2018-12-07T13:56:30.607Z,85.33
2018-12-07T14:00:38.534Z,85.27
2018-12-07T14:04:46.021Z,85.27
2018-12-07T14:08:54.234Z,84.76
2018-12-07T14:13:00.621Z,84.41
2018-12-07T14:17:10.793Z,83.49
2018-12-07T14:21:18.730Z,83.91
2018-12-07T14:25:25.615Z,83.65
2018-12-07T14:29:33.605Z,83.34
2018-12-07T14:33:39.923Z,82.21
2018-12-07T14:37:47.752Z,82.39
2018-12-07T14:41:54.020Z,82.17
2018-12-07T14:46:03.165Z,81.41
2018-12-07T14:50:12.120Z,81.75
2018-12-07T14:54:21.839Z,81.67
2018-12-07T14:58:34.659Z,81.90
2018-12-07T15:02:42.908Z,82.44
2018-12-07T15:06:50.695Z,82.05
2018-12-07T15:11:00.635Z,81.31
2018-12-07T15:15:07.958Z,81.63
2018-12-07T15:19:15.748Z,81.81
2018-12-07T15:23:24.780Z,83.98
2018-12-07T15:27:34.123Z,85.06
2018-12-07T15:31:42.777Z,87.31
2018-12-07T15:35:50.940Z,88.77
2018-12-07T15:39:59.241Z,88.82
2018-12-07T15:44:08.947Z,89.69
2018-12-07T15:48:18.722Z,88.14
2018-12-07T15:52:32.990Z,87.88
2018-12-07T15:56:46.809Z,87.61
2018-12-07T16:00:56.966Z,86.04
2018-12-07T16:05:03.165Z,86.48
2018-12-07T16:09:10.416Z,86.14
2018-12-07T16:13:16.574Z,86.12
2018-12-07T16:17:22.461Z,85.37
2018-12-07T16:21:32.640Z,85.23
2018-12-07T16:25:38.980Z,84.87
2018-12-07T16:29:46.913Z,84.33
2018-12-07T16:33:53.583Z,82.53
2018-12-07T16:38:09.885Z,82.17
2018-12-07T16:42:18.000Z,80.78
2018-12-07T16:46:27.313Z,80.21
2018-12-07T16:50:37.184Z,79.54
2018-12-07T16:54:45.410Z,79.42
2018-12-07T16:58:53.051Z,80.53
2018-12-07T17:03:00.558Z,80.81
2018-12-07T17:07:13.146Z,80.88
2018-12-07T17:11:20.693Z,81.35
2018-12-07T17:15:41.219Z,82.23
2018-12-07T17:19:51.917Z,82.45
2018-12-07T17:24:00.258Z,83.39
2018-12-07T17:28:06.647Z,83.21
2018-12-07T17:32:22.562Z,84.04
2018-12-07T17:36:35.053Z,85.14
2018-12-07T17:40:42.521Z,85.25
2018-12-07T17:44:49.464Z,85.72
2018-12-07T17:48:56.038Z,86.92
2018-12-07T17:53:02.959Z,87.48
2018-12-07T17:57:10.179Z,87.73
2018-12-07T18:01:16.028Z,86.51
2018-12-07T18:05:22.435Z,86.83
2018-12-07T18:09:29.909Z,86.45
2018-12-07T18:13:36.930Z,87.50
2018-12-07T18:17:45.309Z,87.63
2018-12-07T18:21:52.014Z,89.13
2018-12-07T18:26:03.749Z,90.05
2018-12-07T18:30:10.881Z,89.61
2018-12-07T18:34:17.922Z,90.93
2018-12-07T18:38:23.871Z,91.19
2018-12-07T18:42:30.506Z,91.65
2018-12-07T18:46:37.205Z,91.25
2018-12-07T18:50:44.136Z,91.12
2018-12-07T18:54:51.675Z,91.65
2018-12-07T19:03:38.548Z,91.04
2018-12-07T19:08:00.597Z,91.20
2018-12-07T19:12:25.180Z,91.57
2018-12-07T19:16:50.342Z,90.64
2018-12-07T19:20:56.289Z,90.63
2018-12-07T19:25:02.345Z,90.67
2018-12-07T19:29:08.922Z,90.02
2018-12-07T19:33:16.221Z,89.27
2018-12-07T19:37:23.699Z,88.96
2018-12-07T19:41:30.496Z,87.74
2018-12-07T19:45:37.722Z,87.95
2018-12-07T19:49:44.633Z,87.05
2018-12-07T19:53:50.912Z,88.79
2018-12-07T19:57:57.260Z,87.88
2018-12-07T20:02:03.336Z,87.41
2018-12-07T20:06:09.581Z,86.00
2018-12-07T20:10:16.102Z,84.80
2018-12-07T20:14:25.050Z,85.71
2018-12-07T20:18:34.649Z,81.71
2018-12-07T20:22:42.204Z,79.24
2018-12-07T20:26:50.850Z,77.16
2018-12-07T20:30:58.169Z,76.61
2018-12-07T20:35:05.573Z,77.10
2018-12-07T20:39:11.964Z,76.85
2018-12-07T20:43:19.767Z,77.63
2018-12-07T20:47:26.994Z,77.84
2018-12-07T20:51:33.134Z,78.28
2018-12-07T20:55:40.543Z,77.54
2018-12-07T20:59:48.011Z,78.01
2018-12-07T21:04:21.922Z,76.46
2018-12-07T21:09:01.140Z,75.99
2018-12-07T21:14:06.052Z,75.78
2018-12-07T21:18:11.920Z,75.02
2018-12-07T21:22:18.316Z,73.55
2018-12-07T21:26:25.358Z,74.98
2018-12-07T21:30:56.420Z,74.74
2018-12-07T21:35:10.374Z,75.48
2018-12-07T21:39:37.024Z,75.31
2018-12-07T21:43:47.147Z,75.21
2018-12-07T21:48:22.328Z,75.29
2018-12-07T21:52:32.397Z,74.66
2018-12-07T21:56:38.764Z,74.23
2018-12-07T22:00:46.764Z,73.23
2018-12-07T22:04:53.029Z,72.34
2018-12-07T22:08:59.341Z,70.58
2018-12-07T22:13:05.678Z,71.53
2018-12-07T22:17:11.863Z,71.39
2018-12-07T22:21:18.931Z,71.55
2018-12-07T22:25:25.385Z,71.79
2018-12-07T22:29:32.204Z,71.32
2018-12-07T22:33:39.443Z,71.49
2018-12-07T22:37:45.440Z,71.91
2018-12-07T22:41:53.130Z,71.72
2018-12-07T22:45:59.353Z,72.73
2018-12-07T22:50:06.504Z,73.42
2018-12-07T22:54:13.161Z,73.83
2018-12-07T22:58:19.194Z,75.27
2018-12-07T23:02:25.257Z,74.77
2018-12-07T23:06:30.960Z,74.90
2018-12-07T23:10:36.981Z,74.98
2018-12-07T23:14:46.634Z,75.43
2018-12-07T23:18:55.637Z,74.81
2018-12-07T23:23:01.788Z,75.45
2018-12-07T23:27:07.673Z,74.48
2018-12-07T23:31:14.309Z,74.05
2018-12-07T23:35:20.154Z,74.02
2018-12-07T23:39:26.946Z,74.99
2018-12-07T23:43:32.854Z,74.84
2018-12-07T23:47:38.825Z,75.08
2018-12-07T23:51:46.769Z,74.29
2018-12-07T23:55:53.589Z,74.05
2018-12-07T23:59:59.672Z,74.40
